createdAt,value
2023-01-18T00:01:51.433Z,4.97
2023-01-18T00:04:39.699Z,4.63
2023-01-18T00:07:26.409Z,5.70
2023-01-18T00:10:13.185Z,5.63
2023-01-18T00:13:00.494Z,6.07
2023-01-18T00:15:47.186Z,6.30
2023-01-18T00:18:35.925Z,5.93
2023-01-18T00:21:25.323Z,6.50
2023-01-18T00:24:14.887Z,5.87
2023-01-18T00:27:01.435Z,5.97
2023-01-18T00:29:48.128Z,6.00
2023-01-18T00:32:35.764Z,6.83
2023-01-18T00:35:22.760Z,5.83
2023-01-18T00:38:13.031Z,6.80
2023-01-18T00:40:59.993Z,6.83
2023-01-18T00:43:46.345Z,6.33
2023-01-18T00:46:32.910Z,6.27
2023-01-18T00:49:19.717Z,6.53
2023-01-18T00:52:07.888Z,5.90
2023-01-18T00:54:56.026Z,6.27
2023-01-18T00:57:44.341Z,5.23
2023-01-18T01:00:31.037Z,6.93
2023-01-18T01:03:17.990Z,6.50
2023-01-18T01:06:22.741Z,6.37
2023-01-18T01:09:10.341Z,6.03
2023-01-18T01:12:16.923Z,5.90
2023-01-18T01:15:21.228Z,6.07
2023-01-18T01:18:25.898Z,6.30
2023-01-18T01:21:30.103Z,6.77
2023-01-18T01:24:34.768Z,5.80
2023-01-18T01:27:22.765Z,6.20
2023-01-18T01:30:11.039Z,5.37
2023-01-18T01:32:57.851Z,5.60
2023-01-18T01:35:45.200Z,5.67
2023-01-18T01:38:32.452Z,6.77
2023-01-18T01:41:25.247Z,6.63
2023-01-18T01:44:50.018Z,5.30
2023-01-18T01:47:41.141Z,5.60
2023-01-18T01:50:35.496Z,5.47
2023-01-18T01:53:21.929Z,4.47
2023-01-18T01:56:10.491Z,5.70
2023-01-18T01:59:01.053Z,5.70
2023-01-18T02:01:49.618Z,5.50
2023-01-18T02:04:37.172Z,6.30
2023-01-18T02:07:26.541Z,5.60
2023-01-18T02:10:13.653Z,4.97
2023-01-18T02:13:01.557Z,5.63
2023-01-18T02:16:13.223Z,5.17
2023-01-18T02:19:28.659Z,6.37
2023-01-18T02:22:31.910Z,5.63
2023-01-18T02:25:55.698Z,4.87
2023-01-18T02:28:55.095Z,6.10
2023-01-18T02:31:57.887Z,5.80
2023-01-18T02:34:50.999Z,4.93
2023-01-18T02:37:48.562Z,5.53
2023-01-18T02:40:54.035Z,5.13
2023-01-18T02:44:02.256Z,4.43
2023-01-18T02:46:49.114Z,5.60
2023-01-18T02:49:35.659Z,5.80
2023-01-18T02:52:42.893Z,6.17
2023-01-18T02:55:42.323Z,5.53
2023-01-18T02:58:33.867Z,6.30
2023-01-18T03:01:29.704Z,5.43
2023-01-18T03:04:22.987Z,5.33
2023-01-18T03:07:17.574Z,5.40
2023-01-18T03:10:09.089Z,5.07
2023-01-18T03:13:01.079Z,4.63
2023-01-18T03:15:56.902Z,4.67
2023-01-18T03:19:02.279Z,5.47
2023-01-18T03:21:53.144Z,5.07
2023-01-18T03:24:41.289Z,5.00
2023-01-18T03:27:45.683Z,5.47
2023-01-18T03:30:52.846Z,4.83
2023-01-18T03:33:48.713Z,5.07
2023-01-18T03:36:42.212Z,5.47
2023-01-18T03:39:35.728Z,5.20
2023-01-18T03:42:28.683Z,4.70
2023-01-18T03:45:25.957Z,5.30
2023-01-18T03:48:13.985Z,5.90
2023-01-18T03:51:14.602Z,5.27
2023-01-18T03:54:10.296Z,4.23
2023-01-18T03:57:05.065Z,5.17
2023-01-18T03:59:52.523Z,5.00
2023-01-18T04:02:39.454Z,5.10
2023-01-18T04:05:26.152Z,4.83
2023-01-18T04:08:14.411Z,4.60
2023-01-18T04:11:00.886Z,4.43
2023-01-18T04:13:47.330Z,5.07
2023-01-18T04:16:33.884Z,5.13
2023-01-18T04:19:20.877Z,5.00
2023-01-18T04:22:09.683Z,4.07
2023-01-18T04:24:57.825Z,4.67
2023-01-18T04:27:44.613Z,4.03
2023-01-18T04:30:31.214Z,4.13
2023-01-18T04:33:17.850Z,4.33
2023-01-18T04:36:05.029Z,5.03
2023-01-18T04:38:54.865Z,4.47
2023-01-18T04:41:44.654Z,5.00
2023-01-18T04:44:31.304Z,4.10
2023-01-18T04:47:17.794Z,4.40
2023-01-18T04:50:05.599Z,3.77
2023-01-18T04:52:52.070Z,5.13
2023-01-18T04:55:38.691Z,4.77
2023-01-18T04:58:26.801Z,5.07
2023-01-18T05:01:14.100Z,4.03
2023-01-18T05:04:01.653Z,5.00
2023-01-18T05:06:50.013Z,4.97
2023-01-18T05:09:37.107Z,4.77
2023-01-18T05:12:23.690Z,4.77
2023-01-18T05:15:12.387Z,4.53
2023-01-18T05:17:59.237Z,5.37
2023-01-18T05:20:45.759Z,5.53
2023-01-18T05:23:32.541Z,5.03
2023-01-18T05:26:24.207Z,4.97
2023-01-18T05:29:11.136Z,4.37
2023-01-18T05:31:58.889Z,4.73
2023-01-18T05:34:45.794Z,5.53
2023-01-18T05:37:32.273Z,5.00
2023-01-18T05:40:18.928Z,4.97
2023-01-18T05:43:05.338Z,4.37
2023-01-18T05:45:52.706Z,4.93
2023-01-18T05:48:40.560Z,5.03
2023-01-18T05:51:27.379Z,5.50
2023-01-18T05:54:13.954Z,4.37
2023-01-18T05:57:00.773Z,4.50
2023-01-18T05:59:47.557Z,5.03
2023-01-18T06:02:34.218Z,5.00
2023-01-18T06:05:23.482Z,5.40
2023-01-18T06:08:09.879Z,4.53
2023-01-18T06:10:59.074Z,4.57
2023-01-18T06:13:45.807Z,4.47
2023-01-18T06:16:32.614Z,4.63
2023-01-18T06:19:19.708Z,5.23
2023-01-18T06:22:07.794Z,4.73
2023-01-18T06:24:55.109Z,4.93
2023-01-18T06:27:42.369Z,4.77
2023-01-18T06:30:29.347Z,4.70
2023-01-18T06:33:16.330Z,4.17
2023-01-18T06:36:02.966Z,5.47
2023-01-18T06:38:50.901Z,4.20
2023-01-18T06:41:37.339Z,5.57
2023-01-18T06:44:24.110Z,5.47
2023-01-18T06:47:10.836Z,4.63
2023-01-18T06:49:57.542Z,5.30
2023-01-18T06:52:44.861Z,4.80
2023-01-18T06:55:34.511Z,5.40
2023-01-18T06:58:21.340Z,5.47
2023-01-18T07:01:08.249Z,5.90
2023-01-18T07:03:55.488Z,5.63
2023-01-18T07:06:42.332Z,5.87
2023-01-18T07:09:28.948Z,5.20
2023-01-18T07:12:16.782Z,5.43
2023-01-18T07:15:20.516Z,4.20
2023-01-18T07:18:08.046Z,4.47
2023-01-18T07:21:00.287Z,5.00
2023-01-18T07:23:50.203Z,5.17
2023-01-18T07:26:36.856Z,4.67
2023-01-18T07:29:26.292Z,5.77
2023-01-18T07:32:12.692Z,5.43
2023-01-18T07:34:59.648Z,5.47
2023-01-18T07:37:50.285Z,5.07
2023-01-18T07:40:37.012Z,6.13
2023-01-18T07:43:24.176Z,5.80
2023-01-18T07:46:21.052Z,5.93
2023-01-18T07:49:09.483Z,5.97
2023-01-18T07:51:55.963Z,5.27
2023-01-18T07:54:42.962Z,4.87
2023-01-18T07:57:29.810Z,6.30
2023-01-18T08:00:18.204Z,6.37
2023-01-18T08:03:06.578Z,5.73
2023-01-18T08:05:53.611Z,6.27
2023-01-18T08:08:40.894Z,6.60
2023-01-18T08:11:27.743Z,6.47
2023-01-18T08:14:14.637Z,5.63
2023-01-18T08:17:01.563Z,5.80
2023-01-18T08:19:49.831Z,6.27
2023-01-18T08:22:38.780Z,6.43
2023-01-18T08:25:29.595Z,5.57
2023-01-18T08:28:18.429Z,4.87
2023-01-18T08:31:15.189Z,6.10
2023-01-18T08:34:03.411Z,5.43
2023-01-18T08:36:51.381Z,5.83
2023-01-18T08:39:39.249Z,5.77
2023-01-18T08:42:25.838Z,6.20
2023-01-18T08:45:12.786Z,5.80
2023-01-18T08:48:00.527Z,6.47
2023-01-18T08:50:47.191Z,6.00
2023-01-18T08:53:35.421Z,6.30
2023-01-18T08:56:22.472Z,5.77
2023-01-18T08:59:10.176Z,5.87
2023-01-18T09:01:57.186Z,6.33
2023-01-18T09:04:48.470Z,7.47
2023-01-18T09:07:47.426Z,7.37
2023-01-18T09:10:37.388Z,6.07
2023-01-18T09:13:26.253Z,5.83
2023-01-18T09:16:14.333Z,5.00
2023-01-18T09:19:11.419Z,6.40
2023-01-18T09:21:58.102Z,6.60
2023-01-18T09:24:57.615Z,6.43
2023-01-18T09:27:52.466Z,6.40
2023-01-18T09:30:41.786Z,6.53
2023-01-18T09:33:36.944Z,6.00
2023-01-18T09:36:26.935Z,6.17
2023-01-18T09:39:13.542Z,6.77
2023-01-18T09:42:04.547Z,7.10
2023-01-18T09:44:59.441Z,6.80
2023-01-18T09:47:53.976Z,7.43
2023-01-18T09:50:47.029Z,7.50
2023-01-18T09:54:01.044Z,6.90
2023-01-18T09:56:59.630Z,8.57
2023-01-18T09:59:55.528Z,6.83
2023-01-18T10:02:46.951Z,7.03
2023-01-18T10:05:44.135Z,7.33
2023-01-18T10:08:30.933Z,6.80
2023-01-18T10:11:28.067Z,7.20
2023-01-18T10:14:23.205Z,6.50
2023-01-18T10:17:17.992Z,8.00
2023-01-18T10:20:15.620Z,6.40
2023-01-18T10:23:13.520Z,8.20
2023-01-18T10:26:07.666Z,6.57
2023-01-18T10:29:25.460Z,8.87
2023-01-18T10:32:23.991Z,7.50
2023-01-18T10:35:25.749Z,8.30
2023-01-18T10:38:27.565Z,7.73
2023-01-18T10:41:25.705Z,7.17
2023-01-18T10:44:13.566Z,6.50
2023-01-18T10:47:02.842Z,7.73
2023-01-18T10:50:13.014Z,8.17
2023-01-18T10:53:22.778Z,7.63
2023-01-18T10:56:18.527Z,8.47
2023-01-18T10:59:29.881Z,8.07
2023-01-18T11:02:31.858Z,7.47
2023-01-18T11:05:32.672Z,7.53
2023-01-18T11:08:25.319Z,6.97
2023-01-18T11:11:20.080Z,7.03
2023-01-18T11:14:30.846Z,6.97
2023-01-18T11:17:19.866Z,7.57
2023-01-18T11:20:18.048Z,8.67
2023-01-18T11:23:18.229Z,7.23
2023-01-18T11:26:13.912Z,7.93
2023-01-18T11:29:05.095Z,7.47
2023-01-18T11:32:12.210Z,7.83
2023-01-18T11:35:01.744Z,6.77
2023-01-18T11:37:48.823Z,7.67
2023-01-18T11:40:37.515Z,7.03
2023-01-18T11:43:28.582Z,6.53
2023-01-18T11:46:39.986Z,7.17
2023-01-18T11:49:42.207Z,7.23
2023-01-18T11:52:48.748Z,6.53
2023-01-18T11:55:56.413Z,6.63
2023-01-18T11:58:45.282Z,5.83
2023-01-18T12:01:59.690Z,8.07
2023-01-18T12:05:25.691Z,7.30
2023-01-18T12:08:55.441Z,8.27
2023-01-18T12:12:03.656Z,6.67
2023-01-18T12:15:25.354Z,6.93
2023-01-18T12:18:35.922Z,6.47
2023-01-18T12:21:37.154Z,7.10
2023-01-18T12:24:49.749Z,7.20
2023-01-18T12:27:52.064Z,7.50
2023-01-18T12:31:00.635Z,7.50
2023-01-18T12:34:07.426Z,7.23
2023-01-18T12:37:24.820Z,8.17
2023-01-18T12:40:38.110Z,6.67
2023-01-18T12:43:44.669Z,6.27
2023-01-18T12:46:42.399Z,7.03
2023-01-18T12:49:41.195Z,6.67
2023-01-18T12:52:30.913Z,6.57
2023-01-18T12:55:23.295Z,6.07
2023-01-18T12:58:17.880Z,6.47
2023-01-18T13:01:22.749Z,6.40
2023-01-18T13:04:21.346Z,5.60
2023-01-18T13:07:21.755Z,6.43
2023-01-18T13:10:19.983Z,6.13
2023-01-18T13:13:17.874Z,6.37
2023-01-18T13:17:01.374Z,6.43
2023-01-18T13:19:58.502Z,5.60
2023-01-18T13:23:10.052Z,6.30
2023-01-18T13:26:18.440Z,6.93
2023-01-18T13:29:29.632Z,5.83
2023-01-18T13:32:36.893Z,4.83
2023-01-18T13:35:33.761Z,5.70
2023-01-18T13:38:40.935Z,5.40
2023-01-18T13:41:31.141Z,5.33
2023-01-18T13:44:32.336Z,4.93
2023-01-18T13:47:53.232Z,5.50
2023-01-18T13:50:45.267Z,4.40
2023-01-18T13:53:50.321Z,6.97
2023-01-18T13:57:11.924Z,4.60
2023-01-18T14:00:02.375Z,3.43
2023-01-18T14:03:05.613Z,4.43
2023-01-18T14:05:58.564Z,4.27
2023-01-18T14:08:53.555Z,4.40
2023-01-18T14:11:50.426Z,4.63
2023-01-18T14:14:54.921Z,4.97
2023-01-18T14:17:57.934Z,4.97
2023-01-18T14:21:18.697Z,4.33
2023-01-18T14:24:32.036Z,5.37
2023-01-18T14:27:24.284Z,4.57
2023-01-18T14:30:22.607Z,4.90
2023-01-18T14:33:17.017Z,4.67
2023-01-18T14:36:08.459Z,4.67
2023-01-18T14:39:17.948Z,5.07
2023-01-18T14:42:12.006Z,4.87
2023-01-18T14:44:59.335Z,4.93
2023-01-18T14:47:49.885Z,4.77
2023-01-18T14:50:41.817Z,5.00
2023-01-18T14:53:33.730Z,5.23
2023-01-18T14:56:24.002Z,5.17
2023-01-18T14:59:22.384Z,5.20
2023-01-18T15:02:20.412Z,4.33
2023-01-18T15:05:18.100Z,4.47
2023-01-18T15:08:13.746Z,4.63
2023-01-18T15:11:06.069Z,4.27
2023-01-18T15:13:58.912Z,4.67
2023-01-18T15:16:49.626Z,4.33
2023-01-18T15:19:41.681Z,3.33
2023-01-18T15:22:34.442Z,4.33
2023-01-18T15:25:28.041Z,4.13
2023-01-18T15:28:24.005Z,4.80
2023-01-18T15:31:31.490Z,4.47
2023-01-18T15:34:27.698Z,4.33
2023-01-18T15:37:24.867Z,4.60
2023-01-18T15:40:31.034Z,4.13
2023-01-18T15:43:30.234Z,4.67
2023-01-18T15:46:19.709Z,4.80
2023-01-18T15:49:06.392Z,4.47
2023-01-18T15:51:57.510Z,4.00
2023-01-18T15:54:44.543Z,4.23
2023-01-18T15:57:34.307Z,4.27
2023-01-18T16:00:32.838Z,4.77
2023-01-18T16:03:22.882Z,4.67
2023-01-18T16:06:16.778Z,4.33
2023-01-18T16:09:19.063Z,4.13
2023-01-18T16:12:09.636Z,4.13
2023-01-18T16:14:57.713Z,4.63
2023-01-18T16:17:47.082Z,3.80
2023-01-18T16:20:36.282Z,4.17
2023-01-18T16:23:23.355Z,4.17
2023-01-18T16:26:14.405Z,4.57
2023-01-18T16:29:09.428Z,4.27
2023-01-18T16:32:35.327Z,3.83
2023-01-18T16:35:24.471Z,3.80
2023-01-18T16:38:14.575Z,3.67
2023-01-18T16:41:03.334Z,4.27
2023-01-18T16:43:50.975Z,4.23
2023-01-18T16:46:38.028Z,4.13
2023-01-18T16:49:28.291Z,4.00
2023-01-18T16:52:16.997Z,4.67
2023-01-18T16:55:07.136Z,4.27
2023-01-18T16:57:54.264Z,4.10
2023-01-18T17:00:53.977Z,4.20
2023-01-18T17:03:41.301Z,3.57
2023-01-18T17:06:29.505Z,3.50
2023-01-18T17:09:23.516Z,3.97
2023-01-18T17:12:12.054Z,3.93
2023-01-18T17:14:59.197Z,3.83
2023-01-18T17:17:49.965Z,3.30
2023-01-18T17:20:40.016Z,3.97
2023-01-18T17:23:36.208Z,3.33
2023-01-18T17:26:30.391Z,3.33
2023-01-18T17:29:30.506Z,3.93
2023-01-18T17:32:37.306Z,3.30
2023-01-18T17:35:32.139Z,4.27
2023-01-18T17:38:37.976Z,3.43
2023-01-18T17:44:50.058Z,3.60
2023-01-18T17:47:38.877Z,3.50
2023-01-18T17:50:26.637Z,4.23
2023-01-18T17:53:13.435Z,3.40
2023-01-18T17:56:01.352Z,3.60
2023-01-18T17:58:49.870Z,4.10
2023-01-18T18:01:37.128Z,3.47
2023-01-18T18:04:23.755Z,3.77
2023-01-18T18:07:10.401Z,4.03
2023-01-18T18:10:00.901Z,2.70
2023-01-18T18:12:49.318Z,3.37
2023-01-18T18:15:35.783Z,3.60
2023-01-18T18:18:23.768Z,3.97
2023-01-18T18:21:11.044Z,4.03
2023-01-18T18:23:58.533Z,3.60
2023-01-18T18:26:45.449Z,3.00
2023-01-18T18:29:33.561Z,3.80
2023-01-18T18:32:20.558Z,3.23
2023-01-18T18:35:23.739Z,3.50
2023-01-18T18:38:13.569Z,3.10
2023-01-18T18:41:05.067Z,3.27
2023-01-18T18:43:54.268Z,3.47
2023-01-18T18:46:42.516Z,3.23
2023-01-18T18:49:29.234Z,3.10
2023-01-18T18:52:15.752Z,3.07
2023-01-18T18:55:03.723Z,2.87
2023-01-18T18:57:51.179Z,3.07
2023-01-18T19:00:37.891Z,2.90
2023-01-18T19:03:26.426Z,2.17
2023-01-18T19:06:13.165Z,2.70
2023-01-18T19:08:59.815Z,2.60
2023-01-18T19:11:54.292Z,3.17
2023-01-18T19:14:27.081Z,2.73
2023-01-18T19:17:21.823Z,2.87
2023-01-18T19:20:19.809Z,2.57
2023-01-18T19:23:07.134Z,2.53
2023-01-18T19:25:54.794Z,3.23
2023-01-18T19:28:41.985Z,2.37
2023-01-18T19:31:43.990Z,3.03
2023-01-18T19:34:38.691Z,2.90
2023-01-18T19:37:26.957Z,2.67
2023-01-18T19:44:04.388Z,2.20
2023-01-18T19:46:55.133Z,2.23
2023-01-18T19:49:45.738Z,2.60
2023-01-18T19:53:28.781Z,2.53
2023-01-18T19:56:17.581Z,2.30
2023-01-18T19:59:05.900Z,2.00
2023-01-18T20:01:55.198Z,2.57
2023-01-18T20:04:43.564Z,2.33
2023-01-18T20:07:31.067Z,2.93
2023-01-18T20:10:20.316Z,2.63
2023-01-18T20:13:07.267Z,2.60
2023-01-18T20:16:07.729Z,2.40
2023-01-18T20:18:54.946Z,3.43
2023-01-18T20:21:42.028Z,2.60
2023-01-18T20:24:28.493Z,2.73
2023-01-18T20:27:17.233Z,3.03
2023-01-18T20:30:05.509Z,2.53
2023-01-18T20:32:54.291Z,3.10
2023-01-18T20:35:40.879Z,3.10
2023-01-18T20:38:27.615Z,3.33
2023-01-18T20:41:14.561Z,3.03
2023-01-18T20:44:02.764Z,3.90
2023-01-18T20:46:50.910Z,3.43
2023-01-18T20:49:43.561Z,3.40
2023-01-18T20:52:30.723Z,3.20
2023-01-18T20:55:18.714Z,3.50
2023-01-18T20:58:09.795Z,3.63
2023-01-18T21:01:32.289Z,4.07
2023-01-18T21:04:24.234Z,3.07
2023-01-18T21:07:12.279Z,3.30
2023-01-18T21:09:59.075Z,3.57
2023-01-18T21:12:47.557Z,2.87
2023-01-18T21:15:35.051Z,3.57
2023-01-18T21:18:23.337Z,3.17
2023-01-18T21:21:10.612Z,3.50
2023-01-18T21:23:57.580Z,2.97
2023-01-18T21:26:44.063Z,3.80
2023-01-18T21:29:31.105Z,2.90
2023-01-18T21:32:18.134Z,2.90
2023-01-18T21:35:08.313Z,3.17
2023-01-18T21:37:56.053Z,3.80
2023-01-18T21:40:43.321Z,3.43
2023-01-18T21:43:49.685Z,3.57
2023-01-18T21:46:36.573Z,2.90
2023-01-18T21:53:07.668Z,3.27
2023-01-18T21:55:54.347Z,2.90
2023-01-18T21:58:58.032Z,3.53
2023-01-18T22:01:47.864Z,3.00
2023-01-18T22:04:52.117Z,2.50
2023-01-18T22:07:38.930Z,3.93
2023-01-18T22:10:26.940Z,2.80
2023-01-18T22:13:13.481Z,2.90
2023-01-18T22:16:06.579Z,2.77
2023-01-18T22:18:53.514Z,2.77
2023-01-18T22:21:40.606Z,3.17
2023-01-18T22:24:27.746Z,4.17
2023-01-18T22:27:16.010Z,3.27
2023-01-18T22:30:03.020Z,3.20
2023-01-18T22:32:49.732Z,3.27
2023-01-18T22:35:44.299Z,3.13
2023-01-18T22:38:31.213Z,2.77
2023-01-18T22:41:22.039Z,3.20
2023-01-18T22:44:10.788Z,3.27
2023-01-18T22:46:57.367Z,3.13
2023-01-18T22:49:44.237Z,4.10
2023-01-18T22:52:30.834Z,3.47
2023-01-18T22:55:17.870Z,2.53
2023-01-18T22:58:07.547Z,3.30
2023-01-18T23:01:07.477Z,2.53
2023-01-18T23:04:00.304Z,3.07
2023-01-18T23:06:57.272Z,3.27
2023-01-18T23:12:55.491Z,3.77
2023-01-18T23:16:06.683Z,3.93
2023-01-18T23:19:00.200Z,4.77
2023-01-18T23:21:51.348Z,3.47
2023-01-18T23:24:45.468Z,4.00
2023-01-18T23:27:35.199Z,3.63
2023-01-18T23:30:40.130Z,4.10
2023-01-18T23:33:27.411Z,3.77
2023-01-18T23:36:28.627Z,3.50
2023-01-18T23:39:33.660Z,4.03
2023-01-18T23:42:44.342Z,3.23
2023-01-18T23:45:51.593Z,3.93
2023-01-18T23:48:56.737Z,3.37
2023-01-18T23:52:09.559Z,3.80
2023-01-18T23:54:59.375Z,4.23
2023-01-18T23:57:54.431Z,3.80
